Time;durP1;ratioP1;P1;durP2;ratioP2;P2;SDS_P1;SDS_P2;PMS_P1;PMS_P2;Temp;Humidity;BMP_temperature;BMP_pressure;BME280_temperature;BME280_humidity;BME280_pressure;Samples;Min_cycle;Max_cycle;Signal;HPM_P1;HPM_P2
2022/03/03 00:01:22;;;;;;;18.13;10.83;;;;;;;;;;4934352;29;20543;-89
2022/03/03 00:04:27;;;;;;;16.47;10.33;;;;;;;;;;4934618;29;20555;-88
2022/03/03 00:07:32;;;;;;;18.93;11.33;;;;;;;;;;4923620;29;20548;-89
2022/03/03 00:10:36;;;;;;;18.93;11.67;;;;;;;;;;4944905;28;20631;-88
2022/03/03 00:13:40;;;;;;;18.10;11.50;;;;;;;;;;4923090;29;20560;-88
2022/03/03 00:16:44;;;;;;;18.50;11.43;;;;;;;;;;4923049;29;20568;-88
2022/03/03 00:19:49;;;;;;;20.07;12.30;;;;;;;;;;4934053;29;20639;-89
2022/03/03 00:22:55;;;;;;;21.80;12.03;;;;;;;;;;4912350;29;20904;-88
2022/03/03 00:26:00;;;;;;;19.23;12.40;;;;;;;;;;4912206;29;20615;-88
2022/03/03 00:29:04;;;;;;;19.50;12.23;;;;;;;;;;4923181;29;20630;-89
2022/03/03 00:32:08;;;;;;;22.57;12.40;;;;;;;;;;4922885;29;20623;-89
2022/03/03 00:35:12;;;;;;;23.53;12.17;;;;;;;;;;4922739;28;20606;-89
2022/03/03 00:38:17;;;;;;;24.47;12.67;;;;;;;;;;4922377;28;20615;-89
2022/03/03 00:41:21;;;;;;;19.73;12.30;;;;;;;;;;4979214;23;20702;-88
2022/03/03 00:44:25;;;;;;;20.10;13.03;;;;;;;;;;4968214;28;20610;-88
2022/03/03 00:47:29;;;;;;;20.47;12.07;;;;;;;;;;4978889;28;20978;-88
2022/03/03 00:50:33;;;;;;;20.73;13.20;;;;;;;;;;4980789;28;20986;-88
2022/03/03 00:53:38;;;;;;;20.03;12.50;;;;;;;;;;5011115;28;20555;-88
2022/03/03 00:56:42;;;;;;;19.03;12.53;;;;;;;;;;5010353;28;20606;-88
2022/03/03 00:59:45;;;;;;;20.93;11.97;;;;;;;;;;5010456;28;20630;-88
2022/03/03 01:02:50;;;;;;;20.00;12.00;;;;;;;;;;5022157;28;20540;-88
2022/03/03 01:05:55;;;;;;;21.40;11.70;;;;;;;;;;5010779;28;20558;-88
2022/03/03 01:08:59;;;;;;;19.90;12.20;;;;;;;;;;4999313;28;20562;-88
2022/03/03 01:12:03;;;;;;;20.13;12.40;;;;;;;;;;5021820;28;20603;-88
2022/03/03 01:15:09;;;;;;;20.17;11.43;;;;;;;;;;5021770;28;20547;-88
2022/03/03 01:18:13;;;;;;;16.57;10.80;;;;;;;;;;5010589;28;20551;-88
2022/03/03 01:21:17;;;;;;;17.13;11.17;;;;;;;;;;5010349;28;20638;-89
2022/03/03 01:24:21;;;;;;;19.80;10.77;;;;;;;;;;5022102;28;20547;-88
2022/03/03 01:27:25;;;;;;;19.10;12.20;;;;;;;;;;5022076;28;20551;-88
2022/03/03 01:30:30;;;;;;;23.20;11.70;;;;;;;;;;5010222;28;20702;-88
2022/03/03 01:33:34;;;;;;;16.30;11.10;;;;;;;;;;5010400;28;20539;-89
2022/03/03 01:36:39;;;;;;;19.02;10.90;;;;;;;;;;5032644;28;21188;-88
2022/03/03 01:39:43;;;;;;;18.67;12.07;;;;;;;;;;5009844;28;20231;-88
2022/03/03 01:42:51;;;;;;;18.60;11.33;;;;;;;;;;5010342;28;20185;-88
2022/03/03 01:45:56;;;;;;;20.17;11.65;;;;;;;;;;5021404;28;20610;-88
2022/03/03 01:49:00;;;;;;;18.67;12.23;;;;;;;;;;5021603;28;20204;-89
2022/03/03 01:52:04;;;;;;;22.53;11.47;;;;;;;;;;5021236;28;20598;-88
2022/03/03 01:55:10;;;;;;;22.40;12.43;;;;;;;;;;5021252;28;21172;-88
2022/03/03 01:58:14;;;;;;;18.08;11.52;;;;;;;;;;5021337;28;20611;-89
2022/03/03 02:01:18;;;;;;;19.63;11.47;;;;;;;;;;5025280;28;20235;-88
2022/03/03 02:04:22;;;;;;;21.97;11.70;;;;;;;;;;5002766;28;20605;-89
2022/03/03 02:07:27;;;;;;;18.93;11.43;;;;;;;;;;5025334;28;20965;-89
2022/03/03 02:10:32;;;;;;;22.73;11.53;;;;;;;;;;5013700;28;20634;-89
2022/03/03 02:13:36;;;;;;;19.77;12.10;;;;;;;;;;5013674;28;21069;-88
2022/03/03 02:16:40;;;;;;;20.00;12.43;;;;;;;;;;5013355;28;20611;-88
2022/03/03 02:19:44;;;;;;;22.87;12.73;;;;;;;;;;5013475;28;20228;-89
2022/03/03 02:22:53;;;;;;;18.30;12.23;;;;;;;;;;5024619;28;20606;-89
2022/03/03 02:25:57;;;;;;;22.80;12.87;;;;;;;;;;5013407;28;20196;-88
2022/03/03 02:29:02;;;;;;;19.83;11.82;;;;;;;;;;5013589;28;20894;-88
2022/03/03 02:32:07;;;;;;;20.15;12.27;;;;;;;;;;5013061;28;20208;-88
2022/03/03 02:35:12;;;;;;;19.88;11.85;;;;;;;;;;5035822;28;20192;-88
2022/03/03 02:38:16;;;;;;;16.50;11.05;;;;;;;;;;5024561;28;20188;-88
2022/03/03 02:41:21;;;;;;;18.90;11.40;;;;;;;;;;5001786;28;20231;-88
2022/03/03 02:44:26;;;;;;;24.85;12.45;;;;;;;;;;5024312;28;20188;-88
2022/03/03 02:47:31;;;;;;;21.15;11.73;;;;;;;;;;5013060;28;20187;-88
2022/03/03 02:50:35;;;;;;;17.50;11.73;;;;;;;;;;5023810;28;20232;-88
2022/03/03 02:53:39;;;;;;;21.40;12.30;;;;;;;;;;5024163;28;20211;-88
2022/03/03 03:00:07;;;;;;;19.88;11.10;;;;;;;;;;5012537;28;20224;-88
2022/03/03 03:03:11;;;;;;;17.73;12.15;;;;;;;;;;5023711;28;20678;-88
2022/03/03 03:06:15;;;;;;;20.85;11.70;;;;;;;;;;5012588;28;20184;-88
2022/03/03 03:09:19;;;;;;;22.67;11.77;;;;;;;;;;5012288;28;20188;-88
2022/03/03 03:12:23;;;;;;;23.10;11.77;;;;;;;;;;5012260;28;20606;-88
2022/03/03 03:15:27;;;;;;;20.83;11.52;;;;;;;;;;5012487;28;20559;-88
2022/03/03 03:18:31;;;;;;;19.10;11.10;;;;;;;;;;5012657;28;20188;-88
2022/03/03 03:21:35;;;;;;;21.63;12.85;;;;;;;;;;5023675;28;20180;-88
2022/03/03 03:24:39;;;;;;;21.02;12.63;;;;;;;;;;5023579;28;20184;-88
2022/03/03 03:27:44;;;;;;;17.48;11.13;;;;;;;;;;5012380;28;20188;-88
2022/03/03 03:30:49;;;;;;;19.58;11.80;;;;;;;;;;5012218;28;20219;-88
2022/03/03 03:33:53;;;;;;;22.23;11.52;;;;;;;;;;5023465;28;20655;-89
2022/03/03 03:36:58;;;;;;;19.77;11.50;;;;;;;;;;5012223;28;20188;-88
2022/03/03 03:40:04;;;;;;;16.52;10.43;;;;;;;;;;5011644;28;20235;-88
2022/03/03 03:43:08;;;;;;;18.88;11.70;;;;;;;;;;5022864;28;20219;-88
2022/03/03 03:46:12;;;;;;;20.30;11.75;;;;;;;;;;5011722;28;20185;-88
2022/03/03 03:49:16;;;;;;;19.40;11.95;;;;;;;;;;5011914;28;20586;-88
2022/03/03 03:52:20;;;;;;;22.92;12.40;;;;;;;;;;5011445;28;20618;-88
2022/03/03 03:55:24;;;;;;;19.98;11.20;;;;;;;;;;5011875;28;20746;-88
2022/03/03 03:58:29;;;;;;;18.00;11.43;;;;;;;;;;5011939;28;20192;-88
2022/03/03 04:01:33;;;;;;;19.30;11.50;;;;;;;;;;5011256;28;20231;-88
2022/03/03 04:04:37;;;;;;;17.98;11.27;;;;;;;;;;5011692;28;20187;-88
2022/03/03 04:07:41;;;;;;;17.88;11.07;;;;;;;;;;5022846;28;20191;-88
2022/03/03 04:10:46;;;;;;;19.92;11.20;;;;;;;;;;5011145;28;20227;-89
2022/03/03 04:13:50;;;;;;;22.50;11.48;;;;;;;;;;5022815;28;20211;-88
2022/03/03 04:16:53;;;;;;;18.80;11.98;;;;;;;;;;5034131;28;20207;-88
2022/03/03 04:19:58;;;;;;;19.38;11.95;;;;;;;;;;5011713;28;20215;-89
2022/03/03 04:23:02;;;;;;;16.15;10.77;;;;;;;;;;5022305;28;20655;-88
2022/03/03 04:26:06;;;;;;;20.55;11.38;;;;;;;;;;5011480;28;20203;-88
2022/03/03 04:29:10;;;;;;;19.30;11.20;;;;;;;;;;5011134;28;20188;-88
2022/03/03 04:32:15;;;;;;;18.30;11.23;;;;;;;;;;5011195;28;20276;-89
2022/03/03 04:35:18;;;;;;;17.10;11.45;;;;;;;;;;5011188;28;20654;-88
2022/03/03 04:38:24;;;;;;;17.70;11.23;;;;;;;;;;5011124;28;20184;-88
2022/03/03 04:41:28;;;;;;;17.75;11.23;;;;;;;;;;5022156;28;20239;-88
2022/03/03 04:44:32;;;;;;;20.60;10.98;;;;;;;;;;5011333;28;20208;-89
2022/03/03 04:47:37;;;;;;;18.48;11.60;;;;;;;;;;5010436;28;20678;-88
2022/03/03 04:50:41;;;;;;;18.70;11.52;;;;;;;;;;5022043;28;20227;-88
2022/03/03 04:53:45;;;;;;;22.85;12.10;;;;;;;;;;5010497;28;20220;-88
2022/03/03 04:56:51;;;;;;;20.95;11.52;;;;;;;;;;5021720;28;20203;-88
2022/03/03 04:59:55;;;;;;;17.45;10.77;;;;;;;;;;5010365;28;20223;-88
2022/03/03 05:02:59;;;;;;;20.05;11.48;;;;;;;;;;5010851;28;20188;-88
2022/03/03 05:06:04;;;;;;;15.55;10.25;;;;;;;;;;5010539;28;20208;-88
2022/03/03 05:09:08;;;;;;;20.13;10.85;;;;;;;;;;5010463;28;20188;-88
2022/03/03 05:12:12;;;;;;;20.75;11.52;;;;;;;;;;5010286;28;20266;-88
2022/03/03 05:15:16;;;;;;;18.75;11.43;;;;;;;;;;5010390;28;20211;-88
2022/03/03 05:18:20;;;;;;;18.83;11.70;;;;;;;;;;5021470;28;20203;-88
2022/03/03 05:21:24;;;;;;;22.30;11.65;;;;;;;;;;5021226;28;20579;-88
2022/03/03 05:24:29;;;;;;;18.20;11.20;;;;;;;;;;5010479;28;20184;-89
2022/03/03 05:27:33;;;;;;;23.88;12.20;;;;;;;;;;5021611;28;20200;-88
2022/03/03 05:30:37;;;;;;;25.45;11.25;;;;;;;;;;5010281;28;20220;-88
2022/03/03 05:33:43;;;;;;;25.83;11.05;;;;;;;;;;5011083;28;20207;-88
2022/03/03 05:36:47;;;;;;;19.90;11.48;;;;;;;;;;5025597;28;20188;-88
2022/03/03 05:39:52;;;;;;;20.90;12.13;;;;;;;;;;5025496;28;20235;-88
2022/03/03 05:42:57;;;;;;;19.73;12.30;;;;;;;;;;5014022;28;20211;-86
2022/03/03 05:46:02;;;;;;;19.13;11.70;;;;;;;;;;5002461;28;20191;-87
2022/03/03 05:49:07;;;;;;;20.98;11.13;;;;;;;;;;5014662;28;20184;-88
2022/03/03 05:52:12;;;;;;;19.92;11.18;;;;;;;;;;5009302;28;20192;-87
2022/03/03 05:55:16;;;;;;;18.52;10.48;;;;;;;;;;5014405;28;20203;-86
2022/03/03 05:58:23;;;;;;;18.38;10.60;;;;;;;;;;5014391;28;20188;-86
2022/03/03 06:01:28;;;;;;;17.20;10.95;;;;;;;;;;5024901;28;20223;-86
2022/03/03 06:04:35;;;;;;;21.08;11.35;;;;;;;;;;5013707;28;20192;-85
2022/03/03 06:07:44;;;;;;;19.67;10.35;;;;;;;;;;5014177;28;20192;-86
2022/03/03 06:10:51;;;;;;;18.63;10.85;;;;;;;;;;5005640;28;20232;-86
2022/03/03 06:14:23;;;;;;;16.85;10.35;;;;;;;;;;5017485;28;20212;-87
2022/03/03 06:17:27;;;;;;;19.88;11.60;;;;;;;;;;5024417;28;20681;-88
2022/03/03 06:20:34;;;;;;;18.70;10.90;;;;;;;;;;5035910;28;20227;-88
2022/03/03 06:23:37;;;;;;;18.23;11.32;;;;;;;;;;5012873;28;20219;-88
2022/03/03 06:26:42;;;;;;;17.73;10.95;;;;;;;;;;5012712;28;20215;-88
2022/03/03 06:29:46;;;;;;;18.45;10.88;;;;;;;;;;5013300;28;20235;-87
2022/03/03 06:32:50;;;;;;;19.80;10.68;;;;;;;;;;5012730;28;20215;-87
2022/03/03 06:35:55;;;;;;;20.45;11.25;;;;;;;;;;5011222;28;20583;-87
2022/03/03 06:38:59;;;;;;;14.75;9.13;;;;;;;;;;5013237;28;20208;-87
2022/03/03 06:42:04;;;;;;;21.23;11.38;;;;;;;;;;5011903;23;20730;-87
2022/03/03 06:45:08;;;;;;;21.43;11.13;;;;;;;;;;4937387;29;20542;-87
2022/03/03 06:48:13;;;;;;;20.07;10.93;;;;;;;;;;4915089;29;21172;-87
2022/03/03 06:51:21;;;;;;;19.57;10.37;;;;;;;;;;4923791;28;20642;-87
2022/03/03 06:54:25;;;;;;;22.00;10.30;;;;;;;;;;4902594;29;20603;-88
2022/03/03 06:57:30;;;;;;;22.13;11.63;;;;;;;;;;4924168;29;20619;-88
2022/03/03 07:00:35;;;;;;;22.03;12.57;;;;;;;;;;4910155;28;20650;-89
2022/03/03 07:03:42;;;;;;;26.87;12.67;;;;;;;;;;4921598;29;20543;-89
2022/03/03 07:06:48;;;;;;;27.63;13.47;;;;;;;;;;4921145;28;20613;-89
2022/03/03 07:09:53;;;;;;;23.27;13.00;;;;;;;;;;4921125;29;20566;-88
2022/03/03 07:12:57;;;;;;;23.93;12.70;;;;;;;;;;4932163;29;20953;-89
2022/03/03 07:16:17;;;;;;;23.43;13.07;;;;;;;;;;4920938;28;20617;-89
2022/03/03 07:19:37;;;;;;;22.23;13.23;;;;;;;;;;4932238;29;21088;-89
2022/03/03 07:22:58;;;;;;;30.07;14.23;;;;;;;;;;4921203;29;20555;-89
2022/03/03 07:26:05;;;;;;;22.63;13.13;;;;;;;;;;4908100;29;20604;-89
2022/03/03 07:29:36;;;;;;;22.20;13.40;;;;;;;;;;4911907;29;20587;-88
2022/03/03 07:32:51;;;;;;;20.80;12.83;;;;;;;;;;4912607;29;20544;-89
2022/03/03 07:35:57;;;;;;;21.20;13.93;;;;;;;;;;4929447;29;20595;-89
2022/03/03 07:39:05;;;;;;;208.57;102.77;;;;;;;;;;4932018;29;20548;-89
2022/03/03 07:42:15;;;;;;;53.27;28.37;;;;;;;;;;4944686;28;20646;-89
2022/03/03 07:45:19;;;;;;;42.43;23.40;;;;;;;;;;4985720;28;20611;-88
2022/03/03 07:48:24;;;;;;;23.63;14.50;;;;;;;;;;4894065;29;20545;-89
2022/03/03 07:51:28;;;;;;;23.00;14.07;;;;;;;;;;4898652;29;20627;-88
2022/03/03 07:54:33;;;;;;;22.70;14.07;;;;;;;;;;4901208;29;20644;-88
2022/03/03 07:57:53;;;;;;;23.07;13.83;;;;;;;;;;4892598;29;21083;-87
2022/03/03 08:01:00;;;;;;;22.23;14.43;;;;;;;;;;4904125;29;21208;-87
2022/03/03 08:04:05;;;;;;;26.70;14.77;;;;;;;;;;4908250;29;20599;-86
2022/03/03 08:07:09;;;;;;;25.40;15.63;;;;;;;;;;4911654;29;20607;-87
2022/03/03 08:10:15;;;;;;;22.50;13.57;;;;;;;;;;4922188;29;20600;-88
2022/03/03 08:13:19;;;;;;;22.10;13.63;;;;;;;;;;4895529;29;21178;-89
2022/03/03 08:16:24;;;;;;;22.73;15.30;;;;;;;;;;4911958;29;20620;-88
2022/03/03 08:19:30;;;;;;;22.60;14.80;;;;;;;;;;4911436;28;20635;-89
2022/03/03 08:22:38;;;;;;;20.90;13.50;;;;;;;;;;4904065;29;20600;-88
2022/03/03 08:25:42;;;;;;;21.17;12.93;;;;;;;;;;4882503;29;20601;-88
2022/03/03 08:28:46;;;;;;;21.03;13.27;;;;;;;;;;4911344;28;20608;-87
2022/03/03 08:31:57;;;;;;;19.33;13.60;;;;;;;;;;4911930;29;20652;-87
2022/03/03 08:35:16;;;;;;;36.43;16.90;;;;;;;;;;4911983;29;20632;-87
2022/03/03 08:38:28;;;;;;;22.10;13.57;;;;;;;;;;4911753;29;20596;-87
2022/03/03 08:41:36;;;;;;;17.60;12.40;;;;;;;;;;4911377;28;20672;-88
2022/03/03 08:44:43;;;;;;;28.63;13.73;;;;;;;;;;4922540;29;20585;-87
2022/03/03 08:47:55;;;;;;;21.17;13.17;;;;;;;;;;4893613;29;20541;-87
2022/03/03 08:51:01;;;;;;;21.33;14.30;;;;;;;;;;4900859;29;20824;-87
2022/03/03 08:54:06;;;;;;;23.30;14.27;;;;;;;;;;4901843;29;20605;-87
2022/03/03 08:57:10;;;;;;;22.77;13.33;;;;;;;;;;4912515;29;20548;-87
2022/03/03 09:00:14;;;;;;;19.37;13.30;;;;;;;;;;4912360;29;20185;-87
2022/03/03 09:03:21;;;;;;;19.37;13.97;;;;;;;;;;4895723;29;20532;-89
2022/03/03 09:06:25;;;;;;;22.90;13.80;;;;;;;;;;4911399;29;20196;-89
2022/03/03 09:09:29;;;;;;;20.10;12.63;;;;;;;;;;4911255;29;20188;-88
2022/03/03 09:12:34;;;;;;;21.40;14.17;;;;;;;;;;4911607;29;20185;-88
2022/03/03 09:15:38;;;;;;;24.80;14.83;;;;;;;;;;4911489;29;20648;-88
2022/03/03 09:18:44;;;;;;;20.07;12.90;;;;;;;;;;4911299;29;20203;-87
2022/03/03 09:21:48;;;;;;;17.90;12.87;;;;;;;;;;4939613;28;20224;-87
2022/03/03 09:24:53;;;;;;;17.07;12.63;;;;;;;;;;4900935;29;20180;-87
2022/03/03 09:27:57;;;;;;;20.60;13.07;;;;;;;;;;4933938;29;20520;-87
2022/03/03 09:31:01;;;;;;;20.90;13.70;;;;;;;;;;4911321;29;20223;-87
2022/03/03 09:34:05;;;;;;;16.47;12.50;;;;;;;;;;4911524;29;20686;-87
2022/03/03 09:37:09;;;;;;;18.00;11.40;;;;;;;;;;4901097;29;20191;-88
2022/03/03 09:40:14;;;;;;;15.10;11.00;;;;;;;;;;4911060;28;20578;-87
2022/03/03 09:43:18;;;;;;;39.37;12.90;;;;;;;;;;4911023;29;20204;-87
2022/03/03 09:46:23;;;;;;;18.10;11.70;;;;;;;;;;4911613;28;20566;-88
2022/03/03 09:49:27;;;;;;;19.37;12.07;;;;;;;;;;4910983;29;20650;-87
2022/03/03 09:52:31;;;;;;;18.43;11.43;;;;;;;;;;4911043;29;20195;-87
2022/03/03 09:55:37;;;;;;;15.77;11.47;;;;;;;;;;4921737;29;20223;-88
2022/03/03 09:58:41;;;;;;;18.03;11.80;;;;;;;;;;4900465;29;20195;-90
2022/03/03 10:01:46;;;;;;;12.97;10.27;;;;;;;;;;4910578;29;20227;-90
2022/03/03 10:04:54;;;;;;;16.30;10.47;;;;;;;;;;4910678;29;20188;-90
2022/03/03 10:08:03;;;;;;;23.53;10.27;;;;;;;;;;4921467;29;20199;-91
2022/03/03 10:11:09;;;;;;;14.03;10.20;;;;;;;;;;4910655;29;20231;-90
2022/03/03 10:14:13;;;;;;;12.77;9.77;;;;;;;;;;4911145;29;20219;-91
2022/03/03 10:17:18;;;;;;;12.77;9.33;;;;;;;;;;4913375;29;20193;-92
2022/03/03 10:20:22;;;;;;;15.33;9.23;;;;;;;;;;4915335;29;20224;-90
2022/03/03 10:23:35;;;;;;;14.77;9.30;;;;;;;;;;4913974;29;20181;-90
2022/03/03 10:26:39;;;;;;;17.70;8.70;;;;;;;;;;4914379;28;20204;-90
2022/03/03 10:29:47;;;;;;;18.30;9.23;;;;;;;;;;4914240;29;20635;-90
2022/03/03 10:32:52;;;;;;;12.73;8.63;;;;;;;;;;4913774;29;20204;-91
2022/03/03 10:36:01;;;;;;;11.13;7.83;;;;;;;;;;4914057;29;20184;-90
2022/03/03 10:39:06;;;;;;;11.97;8.93;;;;;;;;;;4925606;29;20185;-90
2022/03/03 10:42:17;;;;;;;10.13;7.37;;;;;;;;;;4913467;29;20228;-90
2022/03/03 10:45:21;;;;;;;22.83;8.27;;;;;;;;;;4924286;29;20679;-90
2022/03/03 10:48:27;;;;;;;20.63;9.60;;;;;;;;;;4895172;29;20177;-90
2022/03/03 10:51:32;;;;;;;10.13;7.67;;;;;;;;;;4912939;29;20255;-91
2022/03/03 10:54:53;;;;;;;14.07;7.73;;;;;;;;;;4913920;29;20200;-90
2022/03/03 10:57:59;;;;;;;17.10;11.33;;;;;;;;;;4902871;29;20181;-89
2022/03/03 11:01:03;;;;;;;10.77;7.70;;;;;;;;;;4913634;29;20231;-88
2022/03/03 11:04:07;;;;;;;14.20;9.60;;;;;;;;;;4913350;29;20212;-88
2022/03/03 11:07:15;;;;;;;7.50;5.77;;;;;;;;;;4913452;29;20184;-90
2022/03/03 11:10:21;;;;;;;10.90;5.87;;;;;;;;;;4913322;29;20220;-90
2022/03/03 11:13:25;;;;;;;9.37;6.50;;;;;;;;;;4930331;29;20192;-88
2022/03/03 11:16:30;;;;;;;9.40;6.83;;;;;;;;;;4943148;29;20175;-89
2022/03/03 11:19:34;;;;;;;8.40;5.97;;;;;;;;;;4912360;29;20196;-89
2022/03/03 11:22:39;;;;;;;9.90;8.27;;;;;;;;;;4923261;29;20192;-88
2022/03/03 11:25:48;;;;;;;12.23;8.90;;;;;;;;;;4913045;29;20686;-87
2022/03/03 11:29:12;;;;;;;13.03;9.10;;;;;;;;;;4913254;28;20659;-88
2022/03/03 11:32:17;;;;;;;13.53;9.27;;;;;;;;;;4912593;29;20556;-88
2022/03/03 11:35:24;;;;;;;12.77;9.30;;;;;;;;;;4912900;29;20513;-87
2022/03/03 11:38:51;;;;;;;11.03;8.63;;;;;;;;;;4923755;29;20184;-87
2022/03/03 11:41:55;;;;;;;13.93;8.77;;;;;;;;;;4923253;28;20224;-88
2022/03/03 11:45:18;;;;;;;13.97;9.13;;;;;;;;;;4912703;29;20667;-88
2022/03/03 11:48:23;;;;;;;11.33;8.40;;;;;;;;;;4913390;29;20189;-90
2022/03/03 11:51:34;;;;;;;12.97;9.57;;;;;;;;;;4912964;29;20220;-88
2022/03/03 11:54:41;;;;;;;10.77;7.23;;;;;;;;;;4922830;29;20193;-88
2022/03/03 11:57:45;;;;;;;10.33;7.10;;;;;;;;;;4901569;29;20197;-87
2022/03/03 12:00:59;;;;;;;10.60;7.07;;;;;;;;;;4912498;29;20682;-89
2022/03/03 12:04:04;;;;;;;10.57;6.60;;;;;;;;;;4911862;29;20204;-89
2022/03/03 12:07:29;;;;;;;4.53;3.43;;;;;;;;;;4907361;29;20197;-86
2022/03/03 12:10:34;;;;;;;4.87;3.33;;;;;;;;;;4883165;29;20229;-87
2022/03/03 12:13:38;;;;;;;7.33;5.03;;;;;;;;;;4899692;29;20189;-86
2022/03/03 12:16:45;;;;;;;5.97;4.73;;;;;;;;;;4914851;29;20188;-87
2022/03/03 12:20:34;;;;;;;8.33;4.23;;;;;;;;;;4929038;29;20216;-86
2022/03/03 12:23:38;;;;;;;6.00;4.57;;;;;;;;;;4913936;29;20184;-88
2022/03/03 12:26:55;;;;;;;5.77;4.20;;;;;;;;;;4913977;29;20188;-87
2022/03/03 12:30:08;;;;;;;8.03;5.13;;;;;;;;;;4897263;29;20189;-87
2022/03/03 12:33:30;;;;;;;7.03;4.13;;;;;;;;;;4912096;29;20643;-89
2022/03/03 12:36:37;;;;;;;8.53;5.40;;;;;;;;;;4923762;29;20367;-86
2022/03/03 12:39:52;;;;;;;7.13;5.33;;;;;;;;;;4895194;29;20540;-87
2022/03/03 12:42:56;;;;;;;10.40;5.40;;;;;;;;;;5028475;23;20235;-87
2022/03/03 12:46:02;;;;;;;6.93;4.20;;;;;;;;;;5046881;28;20212;-87
2022/03/03 12:49:10;;;;;;;6.80;4.30;;;;;;;;;;5046339;28;20177;-87
2022/03/03 12:52:14;;;;;;;7.07;4.50;;;;;;;;;;5031906;28;20216;-87
2022/03/03 12:55:18;;;;;;;8.50;5.30;;;;;;;;;;5036205;28;20181;-88
2022/03/03 12:58:23;;;;;;;9.57;6.23;;;;;;;;;;5011910;28;20196;-87
2022/03/03 13:01:27;;;;;;;7.17;5.40;;;;;;;;;;5029361;28;20215;-86
2022/03/03 13:04:31;;;;;;;8.87;6.40;;;;;;;;;;5034683;28;20196;-87
2022/03/03 13:07:41;;;;;;;8.27;5.67;;;;;;;;;;5040494;28;20204;-86
2022/03/03 13:10:45;;;;;;;10.53;7.40;;;;;;;;;;5021038;28;20192;-87
2022/03/03 13:13:51;;;;;;;9.20;6.63;;;;;;;;;;5043320;28;20184;-87
2022/03/03 13:16:56;;;;;;;9.27;5.80;;;;;;;;;;5021148;28;20176;-86
2022/03/03 13:20:03;;;;;;;28.67;7.27;;;;;;;;;;5011038;28;20188;-86
2022/03/03 13:23:10;;;;;;;18.93;6.77;;;;;;;;;;5018591;28;20219;-87
2022/03/03 13:26:20;;;;;;;10.67;6.60;;;;;;;;;;5041669;28;20229;-87
2022/03/03 13:29:25;;;;;;;11.10;6.80;;;;;;;;;;5041046;28;20192;-87
2022/03/03 13:32:42;;;;;;;9.33;7.17;;;;;;;;;;5041027;28;20215;-87
2022/03/03 13:35:46;;;;;;;11.90;7.60;;;;;;;;;;5001857;28;20639;-87
2022/03/03 13:38:52;;;;;;;8.73;6.70;;;;;;;;;;5015635;28;20195;-87
2022/03/03 13:42:10;;;;;;;10.40;7.80;;;;;;;;;;5040524;28;20224;-87
2022/03/03 13:45:25;;;;;;;11.20;7.53;;;;;;;;;;5011470;28;20220;-87
2022/03/03 13:48:32;;;;;;;10.90;7.37;;;;;;;;;;5028174;28;20201;-87
2022/03/03 13:51:35;;;;;;;10.40;7.47;;;;;;;;;;5010608;28;20220;-87
2022/03/03 13:54:51;;;;;;;9.70;7.30;;;;;;;;;;5029986;28;20196;-87
2022/03/03 13:57:56;;;;;;;10.83;7.67;;;;;;;;;;5056878;28;20643;-87
2022/03/03 14:01:00;;;;;;;11.00;7.43;;;;;;;;;;5025315;28;20659;-87
2022/03/03 14:04:12;;;;;;;10.23;7.80;;;;;;;;;;5006935;28;20189;-87
2022/03/03 14:07:32;;;;;;;13.03;7.67;;;;;;;;;;5032106;28;20188;-88
2022/03/03 14:10:46;;;;;;;10.53;7.37;;;;;;;;;;5033082;28;20192;-88
2022/03/03 14:13:55;;;;;;;12.77;8.80;;;;;;;;;;5033661;28;20672;-88
2022/03/03 14:17:02;;;;;;;12.00;7.53;;;;;;;;;;5017541;28;20184;-88
2022/03/03 14:20:07;;;;;;;11.07;7.87;;;;;;;;;;5044820;28;20176;-88
2022/03/03 14:23:11;;;;;;;14.07;7.83;;;;;;;;;;5044636;28;20184;-89
2022/03/03 14:26:30;;;;;;;11.73;8.37;;;;;;;;;;5030089;28;20212;-91
2022/03/03 14:29:35;;;;;;;20.97;9.17;;;;;;;;;;5013294;28;20185;-90
2022/03/03 14:32:39;;;;;;;14.87;8.57;;;;;;;;;;5024439;28;20212;-89
2022/03/03 14:35:43;;;;;;;12.97;8.33;;;;;;;;;;5013528;28;20188;-90
2022/03/03 14:38:50;;;;;;;11.67;7.60;;;;;;;;;;5013440;28;20177;-90
2022/03/03 14:41:55;;;;;;;14.73;8.03;;;;;;;;;;5013006;28;20224;-90
2022/03/03 14:44:59;;;;;;;11.00;7.63;;;;;;;;;;5013415;28;20184;-90
2022/03/03 14:48:04;;;;;;;9.70;7.23;;;;;;;;;;5013339;28;20536;-89
2022/03/03 14:51:10;;;;;;;11.87;7.30;;;;;;;;;;5013093;28;20213;-89
2022/03/03 14:54:14;;;;;;;12.53;7.23;;;;;;;;;;5024385;28;20524;-89
2022/03/03 14:57:19;;;;;;;11.07;7.80;;;;;;;;;;5013087;28;20173;-89
2022/03/03 15:00:23;;;;;;;10.40;7.30;;;;;;;;;;5013290;28;20177;-89
2022/03/03 15:03:28;;;;;;;11.73;7.73;;;;;;;;;;5012855;28;20181;-88
2022/03/03 15:06:32;;;;;;;11.27;7.97;;;;;;;;;;5023782;28;20204;-88
2022/03/03 15:09:36;;;;;;;10.87;7.83;;;;;;;;;;5012591;28;20524;-88
2022/03/03 15:12:41;;;;;;;10.30;7.30;;;;;;;;;;5023854;28;20216;-89
2022/03/03 15:15:45;;;;;;;11.63;7.87;;;;;;;;;;5023894;28;20177;-89
2022/03/03 15:18:50;;;;;;;7.70;6.40;;;;;;;;;;5001582;28;20185;-89
2022/03/03 15:21:54;;;;;;;12.47;7.33;;;;;;;;;;5023530;28;20212;-89
2022/03/03 15:24:58;;;;;;;10.70;7.33;;;;;;;;;;5012186;28;20200;-88
2022/03/03 15:28:02;;;;;;;10.77;7.00;;;;;;;;;;5001373;28;20181;-87
2022/03/03 15:31:07;;;;;;;11.20;7.10;;;;;;;;;;5024450;28;20217;-87
2022/03/03 15:37:34;;;;;;;9.80;6.83;;;;;;;;;;5024388;28;20181;-87
2022/03/03 15:40:42;;;;;;;14.17;6.87;;;;;;;;;;5023946;28;20197;-87
2022/03/03 15:43:46;;;;;;;16.17;8.20;;;;;;;;;;5025195;28;20181;-87
2022/03/03 15:46:51;;;;;;;10.03;7.23;;;;;;;;;;5012721;28;20208;-87
2022/03/03 15:49:55;;;;;;;10.23;7.07;;;;;;;;;;5024086;28;20180;-87
2022/03/03 15:52:59;;;;;;;11.77;7.20;;;;;;;;;;5011575;28;20208;-87
2022/03/03 15:56:04;;;;;;;10.80;7.50;;;;;;;;;;5018625;28;20188;-88
2022/03/03 15:59:09;;;;;;;9.57;6.67;;;;;;;;;;5054918;28;20650;-87
2022/03/03 16:02:13;;;;;;;13.60;6.83;;;;;;;;;;5040185;28;20208;-87
2022/03/03 16:05:17;;;;;;;12.53;7.73;;;;;;;;;;5029561;28;20539;-87
2022/03/03 16:08:22;;;;;;;10.63;7.27;;;;;;;;;;5011568;28;20636;-88
2022/03/03 16:11:26;;;;;;;13.30;7.67;;;;;;;;;;5023091;28;20220;-87
2022/03/03 16:15:03;;;;;;;14.53;7.80;;;;;;;;;;5012469;28;20173;-89
2022/03/03 16:18:09;;;;;;;11.10;7.83;;;;;;;;;;5022544;28;20185;-88
2022/03/03 16:21:15;;;;;;;12.40;8.10;;;;;;;;;;5027649;28;20215;-88
2022/03/03 16:24:21;;;;;;;13.60;7.40;;;;;;;;;;5020721;28;20184;-89
2022/03/03 16:27:25;;;;;;;11.27;7.30;;;;;;;;;;5020875;28;20207;-89
2022/03/03 16:30:29;;;;;;;13.57;6.93;;;;;;;;;;5043907;28;20172;-89
2022/03/03 16:33:38;;;;;;;11.23;7.50;;;;;;;;;;5054479;28;20176;-88
2022/03/03 16:36:43;;;;;;;12.13;7.53;;;;;;;;;;5022250;28;20192;-88
2022/03/03 16:39:46;;;;;;;11.60;7.13;;;;;;;;;;5042064;28;20184;-88
2022/03/03 16:42:51;;;;;;;12.37;6.90;;;;;;;;;;5030606;28;20219;-89
2022/03/03 16:45:55;;;;;;;25.43;8.10;;;;;;;;;;5041880;28;20212;-87
2022/03/03 16:48:59;;;;;;;9.93;6.33;;;;;;;;;;5042526;28;20199;-87
2022/03/03 16:52:24;;;;;;;10.40;6.87;;;;;;;;;;5018753;28;20562;-88
2022/03/03 16:55:29;;;;;;;12.07;6.60;;;;;;;;;;5055374;28;20188;-88
2022/03/03 16:58:34;;;;;;;10.17;6.93;;;;;;;;;;5021115;28;20203;-89
2022/03/03 17:01:39;;;;;;;12.27;6.97;;;;;;;;;;5014039;28;20224;-89
2022/03/03 17:04:43;;;;;;;11.63;6.90;;;;;;;;;;5018671;28;20184;-89
2022/03/03 17:07:47;;;;;;;14.07;7.77;;;;;;;;;;5027087;28;20221;-88
2022/03/03 17:10:52;;;;;;;13.40;7.57;;;;;;;;;;5031447;28;20647;-88
2022/03/03 17:13:57;;;;;;;11.43;6.97;;;;;;;;;;5012549;28;20185;-88
2022/03/03 17:17:02;;;;;;;11.87;7.63;;;;;;;;;;5016398;28;20189;-89
2022/03/03 17:20:06;;;;;;;12.00;7.00;;;;;;;;;;5028258;28;20188;-89
2022/03/03 17:23:11;;;;;;;12.87;7.27;;;;;;;;;;5030576;28;20199;-89
2022/03/03 17:26:15;;;;;;;12.07;6.87;;;;;;;;;;5030305;28;20610;-89
2022/03/03 17:29:20;;;;;;;33.50;8.03;;;;;;;;;;5034683;28;20199;-89
2022/03/03 17:32:24;;;;;;;14.33;6.53;;;;;;;;;;5034454;28;21242;-89
2022/03/03 17:35:28;;;;;;;10.10;6.43;;;;;;;;;;5048303;28;20586;-89
2022/03/03 17:38:33;;;;;;;10.23;6.07;;;;;;;;;;5049075;28;20535;-89
2022/03/03 17:41:37;;;;;;;15.87;6.63;;;;;;;;;;5030367;28;21223;-89
2022/03/03 17:44:44;;;;;;;11.27;6.97;;;;;;;;;;5037053;28;20556;-89
2022/03/03 17:47:50;;;;;;;10.33;6.43;;;;;;;;;;5036517;28;20586;-87
2022/03/03 17:50:54;;;;;;;9.77;6.03;;;;;;;;;;5047213;28;20934;-88
2022/03/03 17:53:58;;;;;;;11.57;6.23;;;;;;;;;;5006832;28;20591;-88
2022/03/03 17:57:03;;;;;;;11.00;6.77;;;;;;;;;;5026509;28;20580;-87
2022/03/03 18:00:11;;;;;;;17.67;7.13;;;;;;;;;;5044239;28;20582;-88
2022/03/03 18:03:15;;;;;;;8.10;6.07;;;;;;;;;;5027976;28;20552;-87
2022/03/03 18:06:19;;;;;;;10.40;5.67;;;;;;;;;;5050700;28;20629;-88
2022/03/03 18:09:23;;;;;;;12.53;6.67;;;;;;;;;;5056325;28;20546;-87
2022/03/03 18:12:27;;;;;;;9.57;6.30;;;;;;;;;;5031595;28;20627;-88
2022/03/03 18:15:31;;;;;;;12.53;6.50;;;;;;;;;;5033895;28;20578;-88
2022/03/03 18:18:36;;;;;;;11.83;6.20;;;;;;;;;;5040713;28;21154;-88